Verifier — MLWN4 — position and weather

sailwx.info

Track history (hours):
 
Tides and Currents Weather Stations Pressure Air Temp Water Temp Dewpoint Dewpoint Depression Visibility Wind Speed Wind Dir Waves Ship Positions

Verifier

Last reported at 2015-Jan-22 17:33 UTC. Time now 2015-Jan-28 20:16 UTC.
Position N 51°30' E 000°52'.

Length 21 m; draft 2 m.

Type: Port tender. MMSI: 235000932.

Date/timePositionNaut miles runAvg speedWind from/ knotsBaromVisibWave heightAir tempDewpointWater temp
2015-Jan-22 17:33N 51°30' E 000°52'1110.6
2015-Jan-22 16:34N 51°29' E 001°09'0 0.1
2015-Jan-22 15:33N 51°29' E 001°09'1 0.9
2015-Jan-22 14:34N 51°30' E 001°07'1 1.3
2015-Jan-22 13:33N 51°29' E 001°09'0 0.4
2015-Jan-22 12:33N 51°30' E 001°09'6 5.8
2015-Jan-22 11:33N 51°29' E 000°59'7 0.4
2015-Jan-21 17:33N 51°30' E 000°48'2120.0
2015-Jan-21 16:30N 51°33' E 001°21'1 0.8
2015-Jan-21 15:22N 51°32' E 001°22'0 0.4
2015-Jan-21 14:33N 51°32' E 001°22'2 1.6
2015-Jan-21 13:20N 51°33' E 001°19'1 1.0
2015-Jan-21 12:33N 51°32' E 001°19'1 0.7
2015-Jan-21 11:33N 51°31' E 001°19'1414.1
2015-Jan-21 10:33N 51°29' E 000°56'6 0.4
2015-Jan-20 18:11N 51°30' E 000°47'1118.0
2015-Jan-20 17:34N 51°30' E 001°05'7 6.9
2015-Jan-20 16:33N 51°31' E 001°16'0 0.5
2015-Jan-20 15:33N 51°31' E 001°16'0 0.4
2015-Jan-20 14:33N 51°31' E 001°15'3 3.2
2015-Jan-20 13:32N 51°31' E 001°20'1 0.8
2015-Jan-20 12:33N 51°31' E 001°19'0 0.1
2015-Jan-20 11:32N 51°31' E 001°19'4 4.1
2015-Jan-20 10:33N 51°32' E 001°12'16 1.0
2015-Jan-19 18:05N 51°30' E 000°46'1018.4
2015-Jan-19 17:33N 51°30' E 001°02'8 8.3
2015-Jan-19 16:33N 51°31' E 001°15'0 0.1
2015-Jan-19 15:33N 51°31' E 001°15'1 1.0
2015-Jan-19 14:32N 51°32' E 001°13'0 0.4
2015-Jan-19 13:33N 51°32' E 001°14'0 0.1
2015-Jan-19 12:31N 51°32' E 001°14'1 1.1
2015-Jan-19 11:33N 51°32' E 001°16'7 6.8
2015-Jan-19 10:33N 51°29' E 001°05'  
Track history (hours):
 
Tides and Currents Weather Stations Pressure Air Temp Water Temp Dewpoint Dewpoint Depression Visibility Wind Speed Wind Dir Waves Ship Positions

Verifier

Last reported at 2015-Jan-22 17:33 UTC. Time now 2015-Jan-28 20:16 UTC.
Position N 51°30' E 000°52'.

Length 21 m; draft 2 m.

Type: Port tender. MMSI: 235000932.

Date/timePositionNaut miles runAvg speedWind from/ knotsBaromVisibWave heightAir tempDewpointWater temp
2015-Jan-22 17:33N 51°30' E 000°52'1110.6
2015-Jan-22 16:34N 51°29' E 001°09'0 0.1
2015-Jan-22 15:33N 51°29' E 001°09'1 0.9
2015-Jan-22 14:34N 51°30' E 001°07'1 1.3
2015-Jan-22 13:33N 51°29' E 001°09'0 0.4
2015-Jan-22 12:33N 51°30' E 001°09'6 5.8
2015-Jan-22 11:33N 51°29' E 000°59'7 0.4
2015-Jan-21 17:33N 51°30' E 000°48'2120.0
2015-Jan-21 16:30N 51°33' E 001°21'1 0.8
2015-Jan-21 15:22N 51°32' E 001°22'0 0.4
2015-Jan-21 14:33N 51°32' E 001°22'2 1.6
2015-Jan-21 13:20N 51°33' E 001°19'1 1.0
2015-Jan-21 12:33N 51°32' E 001°19'1 0.7
2015-Jan-21 11:33N 51°31' E 001°19'1414.1
2015-Jan-21 10:33N 51°29' E 000°56'6 0.4
2015-Jan-20 18:11N 51°30' E 000°47'1118.0
2015-Jan-20 17:34N 51°30' E 001°05'7 6.9
2015-Jan-20 16:33N 51°31' E 001°16'0 0.5
2015-Jan-20 15:33N 51°31' E 001°16'0 0.4
2015-Jan-20 14:33N 51°31' E 001°15'3 3.2
2015-Jan-20 13:32N 51°31' E 001°20'1 0.8
2015-Jan-20 12:33N 51°31' E 001°19'0 0.1
2015-Jan-20 11:32N 51°31' E 001°19'4 4.1
2015-Jan-20 10:33N 51°32' E 001°12'16 1.0
2015-Jan-19 18:05N 51°30' E 000°46'1018.4
2015-Jan-19 17:33N 51°30' E 001°02'8 8.3
2015-Jan-19 16:33N 51°31' E 001°15'0 0.1
2015-Jan-19 15:33N 51°31' E 001°15'1 1.0
2015-Jan-19 14:32N 51°32' E 001°13'0 0.4
2015-Jan-19 13:33N 51°32' E 001°14'0 0.1
2015-Jan-19 12:31N 51°32' E 001°14'1 1.1
2015-Jan-19 11:33N 51°32' E 001°16'7 6.8
2015-Jan-19 10:33N 51°29' E 001°05'  

Dump ship's entire track history